Address 0xb5d557c628091730bfc2ad305ee527739c3ec66c

 
 
Txn Hash
Method
Block
From
To
Value [Txn Fee]
0x4f1ff84779288f06c0f7f1216a29abb167ce6fbc41d5d8513410d7dd8a2fc807Transfer From Wi...381454402023-01-16 9:20:0615 days 14 hrs ago0xb5d557c628091730bfc2ad305ee527739c3ec66cOUT 0x0dfbee143b42b41efc5a6f87bfd1ffc78c2f0ac90 MATIC0.003340327163 51.105032951
0x8804cc936a72fe32628a95b47848d677ab52bd867cb80299800ef03d63708505Transfer From Wi...381452072023-01-16 9:12:0215 days 14 hrs ago0xb5d557c628091730bfc2ad305ee527739c3ec66cOUT 0x0dfbee143b42b41efc5a6f87bfd1ffc78c2f0ac90 MATIC0.003817008092 58.387250169
0x9fd60758235741fc1aa2471359d8de2a57303b11ba9a71df27a77986db64a582Transfer From Wi...381451912023-01-16 9:11:3015 days 14 hrs ago0xb5d557c628091730bfc2ad305ee527739c3ec66cOUT 0x0dfbee143b42b41efc5a6f87bfd1ffc78c2f0ac90 MATIC0.003984169228 60.944247384
0x720a2652f499d7e2caaae5619ba1198e2c6da7dcc13f19750db665a84a21db24Transfer From Wi...381451802023-01-16 9:11:0815 days 14 hrs ago0xb5d557c628091730bfc2ad305ee527739c3ec66cOUT 0x0dfbee143b42b41efc5a6f87bfd1ffc78c2f0ac90 MATIC0.002969512114 56.210950906
0x322046e00f322616d2be741682456de22254486808baf2cd1216024a4ddcc030Transfer From Wi...381451732023-01-16 9:10:5415 days 14 hrs ago0xb5d557c628091730bfc2ad305ee527739c3ec66cOUT 0x0dfbee143b42b41efc5a6f87bfd1ffc78c2f0ac90 MATIC0.003638925645 55.673413378
0x69c8222cfb43534740aa9fe4894b814e6f5c3cd1873b0a1e02a5067c967033eaTransfer From Wi...381451672023-01-16 9:10:4215 days 14 hrs ago0xb5d557c628091730bfc2ad305ee527739c3ec66cOUT 0x0dfbee143b42b41efc5a6f87bfd1ffc78c2f0ac90 MATIC0.003421207753 52.332850266
0xdb457ea7d3bfcb8c267bc547749ed20313814263436cfef632160c50e7de3b5dTransfer379487712023-01-11 15:47:3620 days 8 hrs ago0xb5d557c628091730bfc2ad305ee527739c3ec66cOUT 0x42dbbd5ae373fea2fc320f62d44c058522bb37580 MATIC0.004311476658 79.893943448
0x589fa272d851d0f6e726696c2f7d77dfef84d2bf7ae7d607bc976928d666ffe5Transfer From Wi...374777582022-12-30 22:41:1032 days 1 hr ago0xb5d557c628091730bfc2ad305ee527739c3ec66cOUT 0x0dfbee143b42b41efc5a6f87bfd1ffc78c2f0ac90 MATIC0.004747715418 67.882691149
0xa499d7dfe5b31f86353142fb2819ae8fbaf31107bb7784545ea47db51c5d616aTransfer From Wi...370507962022-12-20 8:30:4742 days 15 hrs ago0xb5d557c628091730bfc2ad305ee527739c3ec66cOUT 0x0dfbee143b42b41efc5a6f87bfd1ffc78c2f0ac90 MATIC0.004636904943 87.753689318
0x17c6229d18c0cd96e661fdac08c435c9dd80958445847f3ca724c126936086c2Transfer From Wi...370507842022-12-20 8:30:2342 days 15 hrs ago0xb5d557c628091730bfc2ad305ee527739c3ec66cOUT 0x0dfbee143b42b41efc5a6f87bfd1ffc78c2f0ac90 MATIC0.005255903874 99.490873683
0x9d4b6ebca994229e73e1892dc5816918dbafc9578bc9e775c036af312d3322e2Transfer From Wi...370507772022-12-20 8:30:0942 days 15 hrs ago0xb5d557c628091730bfc2ad305ee527739c3ec66cOUT 0x0dfbee143b42b41efc5a6f87bfd1ffc78c2f0ac90 MATIC0.005049592387 95.585530159
0xcefeb1ae9f8b9493686da65f48ace5d3c4976c6dc8e20b4382f07c60177c0d79Transfer From Wi...370507692022-12-20 8:29:5342 days 15 hrs ago0xb5d557c628091730bfc2ad305ee527739c3ec66cOUT 0x0dfbee143b42b41efc5a6f87bfd1ffc78c2f0ac90 MATIC0.004805763943 90.94935548
0xa6957d89dd78bc447cb99befcec1d8d18de30b6bf35786c54a07bd0c8b2917e9Transfer From Wi...370507622022-12-20 8:29:3942 days 15 hrs ago0xb5d557c628091730bfc2ad305ee527739c3ec66cOUT 0x0dfbee143b42b41efc5a6f87bfd1ffc78c2f0ac90 MATIC0.005279091304 99.907102667
0x8c5bce0bcbfec09c39d272e3d4764d71fa9849468bd0b170e0d7757d864b31d8Transfer From Wi...370507552022-12-20 8:29:2542 days 15 hrs ago0xb5d557c628091730bfc2ad305ee527739c3ec66cOUT 0x0dfbee143b42b41efc5a6f87bfd1ffc78c2f0ac90 MATIC0.004577185581 86.643173724
0xf4aff116c976f4624be3f7eb18ed2c989e1816f991568e8c7e2b21f1183ba24dTransfer From Wi...370507522022-12-20 8:29:1942 days 15 hrs ago0xb5d557c628091730bfc2ad305ee527739c3ec66cOUT 0x0dfbee143b42b41efc5a6f87bfd1ffc78c2f0ac90 MATIC0.004020931592 76.113644147
0x415435e9f623ce5e1f18816786ba418e869b0af1f147a10831af1191020d421aTransfer From Wi...370507492022-12-20 8:28:5742 days 15 hrs ago0xb5d557c628091730bfc2ad305ee527739c3ec66cOUT 0x0dfbee143b42b41efc5a6f87bfd1ffc78c2f0ac90 MATIC0.003625592669 68.630133055
0x872ee063a2443e392c13967207e4c023c1d9cc24513a4f7d2c450aecdeb70924Transfer From Wi...370507412022-12-20 8:28:4142 days 15 hrs ago0xb5d557c628091730bfc2ad305ee527739c3ec66cOUT 0x0dfbee143b42b41efc5a6f87bfd1ffc78c2f0ac90 MATIC0.005302543721 75.815609398
0xc122292445b8e91f64de73d1ce987097129e31ba128700580bac14d43cb39545Transfer From Wi...362913922022-12-01 10:58:4561 days 13 hrs ago0xb5d557c628091730bfc2ad305ee527739c3ec66cOUT 0x0dfbee143b42b41efc5a6f87bfd1ffc78c2f0ac90 MATIC0.003551689174 43.070616463
0x13fd376d60a4b9dbb1a1a9eb06066ba76f01d1d442ee8fa9e955b1fb5d313f29Transfer361905942022-11-28 23:07:3664 days 58 mins ago0xb5d557c628091730bfc2ad305ee527739c3ec66cOUT 0x42dbbd5ae373fea2fc320f62d44c058522bb37580 MATIC0.002616144125 48.478534708
0x6eb6a67ec654f7d9eab833e998ef94343ea65b9127c08139a74e333496048d9dTransfer355940752022-11-14 11:21:3778 days 12 hrs ago0xb5d557c628091730bfc2ad305ee527739c3ec66cOUT USD Coin0 MATIC0.001987238987 42.780482807
0x8f45c4668c142816f7f8036e1c13a6e26755e7825a0d0066f277c108c0aa28b1Transfer From Wi...355933672022-11-14 10:57:1178 days 13 hrs ago0xb5d557c628091730bfc2ad305ee527739c3ec66cOUT 0x0dfbee143b42b41efc5a6f87bfd1ffc78c2f0ac90 MATIC0.002606071873 39.871360636
0xe17c869683a31ce621d6d27cebbe5737c47a7c29d593b5066f9e16db6fe46a20Transfer From Wi...355933262022-11-14 10:55:4578 days 13 hrs ago0xb5d557c628091730bfc2ad305ee527739c3ec66cOUT 0x0dfbee143b42b41efc5a6f87bfd1ffc78c2f0ac90 MATIC0.004287508411 61.302665301
0xf19fc73bac13ed5d891cf70aa0c90c6a2d77a48755a81847feddcb8debb1d287Transfer From Wi...355933102022-11-14 10:55:1378 days 13 hrs ago0xb5d557c628091730bfc2ad305ee527739c3ec66cOUT 0x0dfbee143b42b41efc5a6f87bfd1ffc78c2f0ac90 MATIC0.004519786763 64.645957487
0x1507d929cec9bb742f466f1f12adb4eb86a10b20cae5f0ac2a586ffe70275e7cTransfer From Wi...355932772022-11-14 10:54:0378 days 13 hrs ago0xb5d557c628091730bfc2ad305ee527739c3ec66cOUT 0x0dfbee143b42b41efc5a6f87bfd1ffc78c2f0ac90 MATIC0.002464286736 46.647360052
0x389dfeaa60395f2abec12ccf38745e6bf9c19282c2207ad7e0b955830515da7cTransfer From Wi...340474172022-10-07 14:15:40116 days 9 hrs ago0xb5d557c628091730bfc2ad305ee527739c3ec66cOUT 0x0dfbee143b42b41efc5a6f87bfd1ffc78c2f0ac90 MATIC0.002879999693 34.925173942
[ Download CSV Export 
Parent Txn Hash Block From To Value
Loading

Contract Name:
0 MATIC

Compiler Version
0

Optimization Enabled:
0 MATIC

Other Settings:
-NA-
Block Transaction Gas Used Reward
Age Block Fee Address BC Fee Address Voting Power Jailed Incoming
Block Uncle Number Difficulty Gas Used Reward
Loading
Loading
Make sure to use the "Vote Down" button for any spammy posts, and the "Vote Up" for interesting conversations.